createdAt,value
2023-01-02T00:02:18.666Z,100829.38
2023-01-02T00:05:06.150Z,100830.31
2023-01-02T00:07:52.284Z,100834.59
2023-01-02T00:10:38.857Z,100833.02
2023-01-02T00:13:25.539Z,100832.64
2023-01-02T00:16:12.197Z,100824.63
2023-01-02T00:18:58.766Z,100825.86
2023-01-02T00:21:45.477Z,100824.27
2023-01-02T00:24:32.116Z,100821.27
2023-01-02T00:27:18.657Z,100817.02
2023-01-02T00:30:05.914Z,100816.91
2023-01-02T00:32:52.446Z,100822.36
2023-01-02T00:35:39.298Z,100820.39
2023-01-02T00:38:26.191Z,100821.21
2023-01-02T00:41:12.744Z,100817.97
2023-01-02T00:43:59.230Z,100805.14
2023-01-02T00:46:46.077Z,100801.19
2023-01-02T00:49:32.673Z,100795.34
2023-01-02T00:52:19.318Z,100791.73
2023-01-02T00:55:06.388Z,100792.80
2023-01-02T00:57:53.176Z,100788.23
2023-01-02T01:00:39.813Z,100790.95
2023-01-02T01:03:26.924Z,100794.08
2023-01-02T01:06:14.659Z,100792.55
2023-01-02T01:09:01.488Z,100791.40
2023-01-02T01:11:48.480Z,100794.17
2023-01-02T01:14:35.316Z,100787.54
2023-01-02T01:17:21.649Z,100785.30
2023-01-02T01:20:09.359Z,100785.82
2023-01-02T01:22:56.268Z,100788.89
2023-01-02T01:25:42.599Z,100787.67
2023-01-02T01:28:29.031Z,100785.82
2023-01-02T01:31:16.758Z,100782.73
2023-01-02T01:34:03.473Z,100778.11
2023-01-02T01:36:49.846Z,100776.55
2023-01-02T01:39:36.380Z,100779.58
2023-01-02T01:42:22.983Z,100774.08
2023-01-02T01:45:14.343Z,100775.31
2023-01-02T01:48:01.022Z,100771.16
2023-01-02T01:50:47.566Z,100765.67
2023-01-02T01:53:34.422Z,100767.02
2023-01-02T01:56:21.748Z,100760.73
2023-01-02T01:59:10.526Z,100752.57
2023-01-02T02:01:58.259Z,100754.38
2023-01-02T02:04:45.511Z,100751.38
2023-01-02T02:07:33.103Z,100757.55
2023-01-02T02:10:19.826Z,100763.54
2023-01-02T02:13:06.164Z,100753.36
2023-01-02T02:16:12.261Z,100756.86
2023-01-02T02:19:12.686Z,100758.64
2023-01-02T02:22:18.099Z,100756.59
2023-01-02T02:25:29.323Z,100753.02
2023-01-02T02:28:21.418Z,100749.30
2023-01-02T02:31:36.348Z,100751.55
2023-01-02T02:34:43.967Z,100745.95
2023-01-02T02:37:41.687Z,100742.55
2023-01-02T02:41:09.931Z,100734.52
2023-01-02T02:44:23.374Z,100734.46
2023-01-02T02:47:17.486Z,100734.88
2023-01-02T02:50:26.123Z,100716.52
2023-01-02T02:53:24.210Z,100709.20
2023-01-02T02:56:12.139Z,100705.50
2023-01-02T02:58:59.142Z,100696.65
2023-01-02T03:01:46.119Z,100695.58
2023-01-02T03:04:33.370Z,100694.13
2023-01-02T03:07:40.234Z,100698.15
2023-01-02T03:10:26.955Z,100699.99
2023-01-02T03:13:42.519Z,100696.95
2023-01-02T03:16:35.933Z,100695.23
2023-01-02T03:19:42.068Z,100691.65
2023-01-02T03:22:34.881Z,100686.34
2023-01-02T03:25:22.268Z,100683.58
2023-01-02T03:28:10.548Z,100680.08
2023-01-02T03:30:58.360Z,100683.11
2023-01-02T03:33:50.504Z,100685.78
2023-01-02T03:36:38.584Z,100682.79
2023-01-02T03:39:29.921Z,100676.76
2023-01-02T03:42:21.533Z,100675.83
2023-01-02T03:45:16.317Z,100679.92
2023-01-02T03:48:14.634Z,100683.66
2023-01-02T03:51:01.964Z,100680.66
2023-01-02T03:53:51.108Z,100687.02
2023-01-02T03:56:54.806Z,100681.02
2023-01-02T03:59:49.083Z,100677.54
2023-01-02T04:02:49.163Z,100673.94
2023-01-02T04:05:56.818Z,100674.44
2023-01-02T04:08:56.314Z,100665.23
2023-01-02T04:11:46.894Z,100663.63
2023-01-02T04:14:42.443Z,100661.45
2023-01-02T04:17:32.338Z,100657.35
2023-01-02T04:20:28.475Z,100654.20
2023-01-02T04:23:25.405Z,100659.42
2023-01-02T04:26:19.342Z,100652.20
2023-01-02T04:29:06.085Z,100645.41
2023-01-02T04:32:07.903Z,100646.13
2023-01-02T04:34:55.377Z,100642.61
2023-01-02T04:37:43.812Z,100643.31
2023-01-02T04:40:30.966Z,100644.04
2023-01-02T04:43:21.011Z,100644.08
2023-01-02T04:46:07.737Z,100641.47
2023-01-02T04:48:54.831Z,100641.93
2023-01-02T04:51:41.809Z,100640.56
2023-01-02T04:54:28.278Z,100640.20
2023-01-02T04:57:15.086Z,100642.38
2023-01-02T05:00:01.390Z,100641.58
2023-01-02T05:02:48.209Z,100647.76
2023-01-02T05:05:35.006Z,100645.52
2023-01-02T05:08:21.359Z,100643.45
2023-01-02T05:11:17.144Z,100646.21
2023-01-02T05:14:07.365Z,100644.80
2023-01-02T05:16:54.127Z,100645.50
2023-01-02T05:19:40.925Z,100645.65
2023-01-02T05:22:46.079Z,100644.77
2023-01-02T05:25:34.558Z,100643.33
2023-01-02T05:28:21.186Z,100634.46
2023-01-02T05:31:08.446Z,100632.55
2023-01-02T05:33:56.256Z,100624.16
2023-01-02T05:36:43.784Z,100626.11
2023-01-02T05:39:30.508Z,100621.16
2023-01-02T05:42:17.058Z,100627.23
2023-01-02T05:45:04.579Z,100625.98
2023-01-02T05:47:50.984Z,100627.33
2023-01-02T05:50:37.237Z,100624.96
2023-01-02T05:53:23.715Z,100620.06
2023-01-02T05:56:12.816Z,100615.79
2023-01-02T05:58:59.568Z,100610.45
2023-01-02T06:01:46.468Z,100599.06
2023-01-02T06:04:33.257Z,100601.88
2023-01-02T06:07:19.970Z,100595.55
2023-01-02T06:10:07.139Z,100593.56
2023-01-02T06:12:53.874Z,100591.45
2023-01-02T06:15:40.294Z,100600.44
2023-01-02T06:18:27.597Z,100597.45
2023-01-02T06:21:16.680Z,100601.64
2023-01-02T06:24:03.798Z,100602.00
2023-01-02T06:26:50.671Z,100598.34
2023-01-02T06:29:37.330Z,100598.07
2023-01-02T06:32:23.801Z,100599.09
2023-01-02T06:35:10.227Z,100595.46
2023-01-02T06:37:56.977Z,100596.60
2023-01-02T06:40:53.368Z,100598.42
2023-01-02T06:43:43.989Z,100597.36
2023-01-02T06:46:30.883Z,100596.63
2023-01-02T06:49:19.165Z,100591.34
2023-01-02T06:52:06.051Z,100588.70
2023-01-02T06:54:52.670Z,100582.42
2023-01-02T06:57:39.042Z,100593.05
2023-01-02T07:00:26.013Z,100597.16
2023-01-02T07:03:12.457Z,100598.11
2023-01-02T07:06:01.428Z,100595.38
2023-01-02T07:08:48.973Z,100603.83
2023-01-02T07:11:35.904Z,100601.21
2023-01-02T07:14:22.575Z,100593.55
2023-01-02T07:17:09.128Z,100590.67
2023-01-02T07:19:59.545Z,100588.88
2023-01-02T07:22:53.137Z,100593.59
2023-01-02T07:25:44.221Z,100597.28
2023-01-02T07:28:31.537Z,100596.70
2023-01-02T07:31:20.099Z,100594.99
2023-01-02T07:34:06.978Z,100597.14
2023-01-02T07:36:53.831Z,100602.58
2023-01-02T07:39:40.452Z,100606.61
2023-01-02T07:42:27.057Z,100606.20
2023-01-02T07:45:13.354Z,100602.67
2023-01-02T07:48:00.204Z,100601.52
2023-01-02T07:50:47.082Z,100594.06
2023-01-02T07:53:34.314Z,100591.36
2023-01-02T07:56:20.800Z,100587.05
2023-01-02T07:59:07.467Z,100593.61
2023-01-02T08:01:54.138Z,100599.81
2023-01-02T08:04:40.514Z,100596.90
2023-01-02T08:07:27.299Z,100594.50
2023-01-02T08:10:14.039Z,100595.02
2023-01-02T08:13:00.844Z,100595.50
2023-01-02T08:15:47.630Z,100603.88
2023-01-02T08:18:34.719Z,100609.98
2023-01-02T08:21:22.387Z,100606.81
2023-01-02T08:24:09.327Z,100612.70
2023-01-02T08:26:56.127Z,100608.63
2023-01-02T08:29:42.853Z,100609.54
2023-01-02T08:32:29.555Z,100602.02
2023-01-02T08:35:16.498Z,100599.37
2023-01-02T08:38:02.899Z,100594.52
2023-01-02T08:40:49.353Z,100594.44
2023-01-02T08:43:36.579Z,100590.76
2023-01-02T08:46:23.019Z,100584.46
2023-01-02T08:49:10.194Z,100592.09
2023-01-02T08:51:57.035Z,100596.23
2023-01-02T08:54:43.617Z,100596.31
2023-01-02T08:57:30.137Z,100601.03
2023-01-02T09:00:17.065Z,100603.91
2023-01-02T09:03:03.898Z,100601.38
2023-01-02T09:05:50.603Z,100594.56
2023-01-02T09:08:36.970Z,100586.73
2023-01-02T09:11:26.428Z,100580.60
2023-01-02T09:14:12.890Z,100580.72
2023-01-02T09:16:59.546Z,100584.58
2023-01-02T09:19:45.826Z,100574.31
2023-01-02T09:22:32.754Z,100572.53
2023-01-02T09:25:24.146Z,100579.08
2023-01-02T09:28:10.900Z,100593.90
2023-01-02T09:30:57.485Z,100611.42
2023-01-02T09:33:45.011Z,100594.70
2023-01-02T09:36:33.074Z,100587.78
2023-01-02T09:39:19.802Z,100592.77
2023-01-02T09:42:08.924Z,100600.20
2023-01-02T09:44:58.094Z,100607.85
2023-01-02T09:47:47.554Z,100603.80
2023-01-02T09:50:34.383Z,100597.58
2023-01-02T09:53:21.264Z,100602.92
2023-01-02T09:56:19.407Z,100599.97
2023-01-02T09:59:47.337Z,100595.58
2023-01-02T10:02:45.431Z,100611.89
2023-01-02T10:05:46.015Z,100612.41
2023-01-02T10:08:36.091Z,100593.55
2023-01-02T10:11:25.645Z,100585.52
2023-01-02T10:14:19.323Z,100597.20
2023-01-02T10:17:07.665Z,100599.91
2023-01-02T10:20:05.361Z,100595.13
2023-01-02T10:22:57.633Z,100582.47
2023-01-02T10:25:53.030Z,100581.09
2023-01-02T10:28:46.306Z,100572.20
2023-01-02T10:31:48.842Z,100579.02
2023-01-02T10:35:07.568Z,100584.24
2023-01-02T10:37:56.364Z,100580.16
2023-01-02T10:40:45.477Z,100584.65
2023-01-02T10:43:35.739Z,100585.36
2023-01-02T10:46:22.370Z,100590.70
2023-01-02T10:49:09.602Z,100582.33
2023-01-02T10:52:06.741Z,100574.98
2023-01-02T10:55:00.475Z,100580.86
2023-01-02T10:57:51.606Z,100582.42
2023-01-02T11:00:38.380Z,100578.40
2023-01-02T11:03:28.190Z,100571.64
2023-01-02T11:06:29.071Z,100551.73
2023-01-02T11:09:21.893Z,100527.42
2023-01-02T11:12:08.485Z,100524.17
2023-01-02T11:15:12.236Z,100534.79
2023-01-02T11:17:59.171Z,100537.21
2023-01-02T11:20:53.525Z,100536.80
2023-01-02T11:23:43.460Z,100535.45
2023-01-02T11:26:33.248Z,100533.40
2023-01-02T11:29:30.066Z,100531.20
2023-01-02T11:32:27.846Z,100534.08
2023-01-02T11:35:44.801Z,100539.94
2023-01-02T11:38:56.880Z,100547.68
2023-01-02T11:42:08.531Z,100552.76
2023-01-02T11:45:31.504Z,100544.77
2023-01-02T11:48:21.337Z,100538.78
2023-01-02T11:51:17.780Z,100528.46
2023-01-02T11:54:10.364Z,100525.05
2023-01-02T11:56:58.998Z,100523.30
2023-01-02T11:59:48.085Z,100520.88
2023-01-02T12:02:39.867Z,100519.92
2023-01-02T12:05:37.749Z,100518.75
2023-01-02T12:08:55.607Z,100516.91
2023-01-02T12:12:04.143Z,100515.51
2023-01-02T12:15:07.436Z,100521.41
2023-01-02T12:18:03.446Z,100521.09
2023-01-02T12:21:06.554Z,100522.33
2023-01-02T12:24:02.572Z,100522.20
2023-01-02T12:26:49.308Z,100524.66
2023-01-02T12:30:11.549Z,100532.06
2023-01-02T12:33:11.995Z,100535.12
2023-01-02T12:36:07.816Z,100533.23
2023-01-02T12:39:08.383Z,100525.19
2023-01-02T12:42:15.007Z,100520.10
2023-01-02T12:45:01.958Z,100515.80
2023-01-02T12:48:00.171Z,100517.23
2023-01-02T12:51:05.701Z,100516.14
2023-01-02T12:54:18.964Z,100514.52
2023-01-02T12:57:22.343Z,100508.17
2023-01-02T13:00:37.658Z,100513.59
2023-01-02T13:03:42.917Z,100513.40
2023-01-02T13:06:45.549Z,100509.33
2023-01-02T13:09:37.471Z,100507.67
2023-01-02T13:12:29.710Z,100509.81
2023-01-02T13:15:22.270Z,100508.98
2023-01-02T13:18:22.818Z,100505.27
2023-01-02T13:21:17.123Z,100505.44
2023-01-02T13:24:04.215Z,100511.62
2023-01-02T13:26:52.717Z,100517.23
2023-01-02T13:29:42.181Z,100521.19
2023-01-02T13:32:30.422Z,100517.67
2023-01-02T13:35:17.133Z,100517.19
2023-01-02T13:38:06.688Z,100522.06
2023-01-02T13:40:58.442Z,100524.05
2023-01-02T13:43:55.206Z,100524.56
2023-01-02T13:49:56.952Z,100526.95
2023-01-02T13:53:14.237Z,100529.80
2023-01-02T13:56:09.231Z,100536.63
2023-01-02T13:59:41.916Z,100544.19
2023-01-02T14:02:28.255Z,100552.33
2023-01-02T14:05:52.895Z,100550.80
2023-01-02T14:08:42.475Z,100546.64
2023-01-02T14:11:55.696Z,100543.60
2023-01-02T14:14:45.194Z,100541.20
2023-01-02T14:17:44.783Z,100542.30
2023-01-02T14:20:34.266Z,100536.42
2023-01-02T14:23:33.340Z,100537.77
2023-01-02T14:26:31.838Z,100543.48
2023-01-02T14:29:18.861Z,100548.21
2023-01-02T14:32:12.217Z,100550.83
2023-01-02T14:34:58.639Z,100548.66
2023-01-02T14:37:48.323Z,100550.70
2023-01-02T14:40:38.626Z,100553.05
2023-01-02T14:43:36.617Z,100551.02
2023-01-02T14:46:25.881Z,100553.17
2023-01-02T14:49:25.376Z,100548.90
2023-01-02T14:52:25.973Z,100554.04
2023-01-02T14:55:19.033Z,100555.11
2023-01-02T14:58:12.258Z,100549.80
2023-01-02T15:01:04.431Z,100554.25
2023-01-02T15:04:03.130Z,100553.48
2023-01-02T15:07:04.673Z,100554.91
2023-01-02T15:10:04.290Z,100565.73
2023-01-02T15:13:03.690Z,100574.72
2023-01-02T15:15:56.027Z,100566.30
2023-01-02T15:18:44.376Z,100573.56
2023-01-02T15:21:31.812Z,100583.48
2023-01-02T15:24:23.631Z,100589.67
2023-01-02T15:27:30.638Z,100586.88
2023-01-02T15:30:27.974Z,100589.71
2023-01-02T15:33:30.553Z,100601.08
2023-01-02T15:36:38.168Z,100597.77
2023-01-02T15:39:32.845Z,100605.90
2023-01-02T15:42:44.020Z,100610.19
2023-01-02T15:45:31.333Z,100614.16
2023-01-02T15:48:19.950Z,100615.24
2023-01-02T15:51:06.907Z,100619.42
2023-01-02T15:53:59.883Z,100623.14
2023-01-02T15:56:50.169Z,100626.06
2023-01-02T15:59:38.959Z,100621.41
2023-01-02T16:02:35.629Z,100618.55
2023-01-02T16:05:22.492Z,100621.65
2023-01-02T16:08:08.994Z,100623.37
2023-01-02T16:11:01.755Z,100619.68
2023-01-02T16:14:12.800Z,100615.18
2023-01-02T16:17:04.455Z,100612.83
2023-01-02T16:19:58.500Z,100611.89
2023-01-02T16:22:59.375Z,100611.33
2023-01-02T16:25:47.485Z,100614.73
2023-01-02T16:28:37.189Z,100618.81
2023-01-02T16:31:24.113Z,100616.98
2023-01-02T16:34:15.194Z,100613.78
2023-01-02T16:37:16.767Z,100616.39
2023-01-02T16:41:01.611Z,100613.92
2023-01-02T16:43:41.027Z,100620.69
2023-01-02T16:46:30.739Z,100616.63
2023-01-02T16:49:22.161Z,100607.27
2023-01-02T16:52:10.085Z,100601.41
2023-01-02T16:54:56.984Z,100607.63
2023-01-02T16:57:43.692Z,100608.46
2023-01-02T17:00:30.030Z,100608.79
2023-01-02T17:03:22.314Z,100606.16
2023-01-02T17:06:16.508Z,100612.80
2023-01-02T17:09:03.420Z,100614.71
2023-01-02T17:12:02.343Z,100615.72
2023-01-02T17:14:48.889Z,100610.91
2023-01-02T17:17:35.796Z,100604.73
2023-01-02T17:20:22.689Z,100604.11
2023-01-02T17:23:09.862Z,100612.15
2023-01-02T17:25:56.535Z,100617.76
2023-01-02T17:28:42.828Z,100626.50
2023-01-02T17:31:29.795Z,100626.17
2023-01-02T17:34:16.768Z,100625.65
2023-01-02T17:37:03.438Z,100633.19
2023-01-02T17:39:54.140Z,100640.80
2023-01-02T17:42:41.269Z,100637.73
2023-01-02T17:45:27.884Z,100636.67
2023-01-02T17:48:18.664Z,100636.30
2023-01-02T17:51:10.257Z,100638.02
2023-01-02T17:53:56.835Z,100638.44
2023-01-02T17:56:43.460Z,100634.90
2023-01-02T17:59:30.000Z,100633.10
2023-01-02T18:02:19.110Z,100634.77
2023-01-02T18:05:07.275Z,100635.88
2023-01-02T18:07:54.440Z,100641.44
2023-01-02T18:10:41.782Z,100635.06
2023-01-02T18:13:28.924Z,100623.40
2023-01-02T18:16:18.820Z,100626.80
2023-01-02T18:19:22.905Z,100626.28
2023-01-02T18:22:14.898Z,100639.13
2023-01-02T18:25:16.072Z,100645.77
2023-01-02T18:28:22.749Z,100647.23
2023-01-02T18:31:16.389Z,100657.14
2023-01-02T18:34:36.186Z,100656.70
2023-01-02T18:37:28.893Z,100661.89
2023-01-02T18:40:27.772Z,100662.56
2023-01-02T18:43:28.400Z,100657.92
2023-01-02T18:46:25.398Z,100660.60
2023-01-02T18:49:42.027Z,100675.14
2023-01-02T18:52:32.270Z,100686.46
2023-01-02T18:55:28.093Z,100690.16
2023-01-02T18:58:24.368Z,100699.45
2023-01-02T19:01:33.153Z,100700.36
2023-01-02T19:04:28.348Z,100703.31
2023-01-02T19:07:24.922Z,100704.02
2023-01-02T19:10:14.196Z,100707.63
2023-01-02T19:13:06.783Z,100709.66
2023-01-02T19:15:58.055Z,100710.48
2023-01-02T19:18:46.209Z,100705.77
2023-01-02T19:21:33.632Z,100706.38
2023-01-02T19:24:24.213Z,100708.60
2023-01-02T19:27:24.544Z,100709.33
2023-01-02T19:30:28.602Z,100703.83
2023-01-02T19:33:48.995Z,100710.62
2023-01-02T19:36:37.179Z,100713.20
2023-01-02T19:39:30.772Z,100713.16
2023-01-02T19:42:21.064Z,100711.49
2023-01-02T19:45:09.003Z,100717.48
2023-01-02T19:47:55.619Z,100724.73
2023-01-02T19:50:42.060Z,100726.39
2023-01-02T19:53:29.031Z,100717.70
2023-01-02T19:56:16.345Z,100711.62
2023-01-02T19:59:03.013Z,100715.27
2023-01-02T20:01:49.774Z,100721.21
2023-01-02T20:04:36.117Z,100727.04
2023-01-02T20:07:24.247Z,100744.05
2023-01-02T20:10:12.038Z,100752.46
2023-01-02T20:12:58.465Z,100756.46
2023-01-02T20:15:45.521Z,100753.73
2023-01-02T20:18:32.163Z,100757.06
2023-01-02T20:21:18.982Z,100766.53
2023-01-02T20:24:06.333Z,100765.61
2023-01-02T20:26:54.339Z,100765.94
2023-01-02T20:29:41.671Z,100765.40
2023-01-02T20:32:29.323Z,100762.96
2023-01-02T20:35:16.074Z,100761.35
2023-01-02T20:38:02.498Z,100754.48
2023-01-02T20:40:49.207Z,100758.54
2023-01-02T20:43:36.166Z,100756.27
2023-01-02T20:46:23.551Z,100759.66
2023-01-02T20:49:10.610Z,100758.35
2023-01-02T20:51:58.004Z,100760.49
2023-01-02T20:54:44.892Z,100763.79
2023-01-02T20:57:31.792Z,100768.80
2023-01-02T21:00:19.091Z,100769.43
2023-01-02T21:03:06.479Z,100768.60
2023-01-02T21:05:53.880Z,100769.48
2023-01-02T21:08:40.588Z,100780.36
2023-01-02T21:11:28.898Z,100783.77
2023-01-02T21:14:15.435Z,100783.56
2023-01-02T21:17:02.011Z,100783.92
2023-01-02T21:19:48.564Z,100783.38
2023-01-02T21:22:34.953Z,100784.73
2023-01-02T21:25:21.561Z,100786.99
2023-01-02T21:28:08.264Z,100782.70
2023-01-02T21:30:55.241Z,100778.02
2023-01-02T21:33:41.891Z,100776.86
2023-01-02T21:36:28.900Z,100774.23
2023-01-02T21:39:15.671Z,100772.84
2023-01-02T21:42:17.518Z,100776.98
2023-01-02T21:45:04.583Z,100780.26
2023-01-02T21:47:51.618Z,100789.98
2023-01-02T21:50:38.002Z,100791.80
2023-01-02T21:53:24.713Z,100787.94
2023-01-02T21:56:11.801Z,100790.89
2023-01-02T21:58:58.625Z,100797.51
2023-01-02T22:01:45.471Z,100799.80
2023-01-02T22:04:33.404Z,100800.27
2023-01-02T22:07:39.300Z,100804.13
2023-01-02T22:10:26.592Z,100802.34
2023-01-02T22:13:13.382Z,100803.04
2023-01-02T22:15:59.873Z,100815.27
2023-01-02T22:18:47.817Z,100816.80
2023-01-02T22:21:34.417Z,100826.14
2023-01-02T22:24:23.653Z,100826.09
2023-01-02T22:27:12.931Z,100827.69
2023-01-02T22:33:07.738Z,100829.59
2023-01-02T22:35:54.529Z,100833.97
2023-01-02T22:39:02.398Z,100838.38
2023-01-02T22:42:34.093Z,100838.38
2023-01-02T22:45:24.790Z,100840.36
2023-01-02T22:48:25.464Z,100841.20
2023-01-02T22:51:13.696Z,100844.02
2023-01-02T22:54:00.127Z,100843.13
2023-01-02T22:56:47.118Z,100835.98
2023-01-02T22:59:33.800Z,100831.73
2023-01-02T23:02:21.180Z,100833.56
2023-01-02T23:05:18.538Z,100836.54
2023-01-02T23:08:05.354Z,100849.34
2023-01-02T23:10:52.323Z,100854.73
2023-01-02T23:13:39.383Z,100858.43
2023-01-02T23:16:44.654Z,100867.58
2023-01-02T23:19:31.283Z,100867.38
2023-01-02T23:22:17.937Z,100871.14
2023-01-02T23:25:07.565Z,100860.34
2023-01-02T23:27:54.259Z,100880.88
2023-01-02T23:30:41.102Z,100893.70
2023-01-02T23:33:27.786Z,100899.56
2023-01-02T23:36:14.875Z,100909.66
2023-01-02T23:39:01.820Z,100921.23
2023-01-02T23:41:49.501Z,100932.11
2023-01-02T23:44:38.324Z,100941.36
2023-01-02T23:47:25.304Z,100953.19
2023-01-02T23:50:11.950Z,100962.11
2023-01-02T23:52:58.691Z,100972.06
2023-01-02T23:55:45.029Z,100979.16
2023-01-02T23:58:31.593Z,100987.51
